Time;durP1;ratioP1;P1;durP2;ratioP2;P2;SDS_P1;SDS_P2;PMS_P1;PMS_P2;Temp;Humidity;BMP_temperature;BMP_pressure;BME280_temperature;BME280_humidity;BME280_pressure;Samples;Min_cycle;Max_cycle;Signal;HPM_P1;HPM_P2
2022/05/28 00:01:11;;;;;;;6.35;1.13;;;;;;;10.60;79.75;101800.59;5072368;28;20035;-72
2022/05/28 00:03:38;;;;;;;6.10;1.02;;;;;;;10.62;78.29;101808.41;5071573;28;20036;-72
2022/05/28 00:06:11;;;;;;;11.32;1.25;;;;;;;10.57;77.78;101800.88;5071787;28;20361;-72
2022/05/28 00:08:37;;;;;;;2.50;0.90;;;;;;;10.58;77.48;101807.84;5072223;28;20504;-73
2022/05/28 00:11:11;;;;;;;6.38;1.15;;;;;;;10.47;78.44;101815.78;5074010;28;20028;-73
2022/05/28 00:13:36;;;;;;;8.98;1.10;;;;;;;10.28;78.19;101776.84;5072440;28;20602;-73
2022/05/28 00:16:01;;;;;;;6.18;1.00;;;;;;;10.46;77.93;101808.84;5072746;28;20024;-73
2022/05/28 00:18:28;;;;;;;6.10;1.05;;;;;;;10.44;78.84;101813.41;5054844;28;20025;-73
2022/05/28 00:20:53;;;;;;;6.00;1.17;;;;;;;10.40;78.88;101806.69;5071836;28;20028;-73
2022/05/28 00:23:18;;;;;;;6.30;1.10;;;;;;;10.39;79.81;101813.78;5073243;28;20059;-73
2022/05/28 00:25:44;;;;;;;4.90;0.90;;;;;;;10.32;79.38;101801.19;5071917;28;20157;-73
2022/05/28 00:28:09;;;;;;;5.40;1.08;;;;;;;10.39;80.32;101799.75;5071363;28;20041;-73
2022/05/28 00:30:35;;;;;;;5.15;1.30;;;;;;;10.42;80.28;101808.25;5070367;28;20496;-72
2022/05/28 00:33:00;;;;;;;6.18;0.95;;;;;;;10.40;80.17;101802.25;5073287;28;20111;-72
2022/05/28 00:35:25;;;;;;;7.50;1.00;;;;;;;10.40;80.67;101807.53;5072776;28;20024;-72
2022/05/28 00:37:51;;;;;;;6.85;1.33;;;;;;;10.37;81.46;101806.97;5072183;28;20065;-72
2022/05/28 00:40:21;;;;;;;10.73;1.42;;;;;;;10.36;80.07;101802.63;5072381;28;20029;-73
2022/05/28 00:42:46;;;;;;;7.35;1.20;;;;;;;10.31;79.96;101804.81;5071023;28;20036;-73
2022/05/28 00:45:12;;;;;;;7.10;0.88;;;;;;;10.26;79.34;101811.28;5071700;28;20098;-73
2022/05/28 00:47:46;;;;;;;7.28;1.40;;;;;;;10.17;78.63;101801.47;5072072;28;20029;-73
2022/05/28 00:50:13;;;;;;;7.93;1.33;;;;;;;10.25;78.45;101814.84;5072721;28;20664;-74
2022/05/28 00:52:40;;;;;;;3.35;0.80;;;;;;;10.22;78.12;101801.91;5071197;28;20013;-73
2022/05/28 00:55:06;;;;;;;6.85;1.00;;;;;;;10.23;76.29;101805.41;5071340;28;20025;-73
2022/05/28 00:57:31;;;;;;;5.35;1.55;;;;;;;10.21;76.73;101802.91;5072834;28;20046;-73
2022/05/28 00:59:57;;;;;;;5.53;1.38;;;;;;;10.20;76.87;101795.94;5071725;28;20020;-73
2022/05/28 01:02:42;;;;;;;4.38;1.13;;;;;;;10.19;77.64;101806.59;5054089;28;20052;-73
2022/05/28 01:05:20;;;;;;;11.30;1.35;;;;;;;10.20;78.14;101808.28;5070201;28;20028;-73
2022/05/28 01:08:18;;;;;;;1.83;0.52;;;;;;;10.09;78.92;101791.53;5071493;28;20157;-73
2022/05/28 01:11:19;;;;;;;6.75;1.30;;;;;;;10.25;79.54;101809.56;5071594;28;20391;-73
2022/05/28 01:13:55;;;;;;;6.07;1.23;;;;;;;10.26;78.94;101811.28;5067668;28;20028;-73
2022/05/28 01:16:39;;;;;;;5.55;0.85;;;;;;;10.27;79.82;101797.09;5072306;28;20016;-73
2022/05/28 01:19:10;;;;;;;5.13;1.20;;;;;;;10.19;78.75;101783.72;5071227;28;20033;-73
2022/05/28 01:21:51;;;;;;;7.32;1.30;;;;;;;10.28;79.09;101803.25;5072187;28;20568;-73
2022/05/28 01:24:35;;;;;;;3.97;1.20;;;;;;;10.27;79.62;101801.53;5070418;28;20021;-73
2022/05/28 01:27:09;;;;;;;8.77;1.48;;;;;;;10.23;80.09;101806.22;5071089;28;20040;-73
2022/05/28 01:29:41;;;;;;;9.23;1.25;;;;;;;10.22;80.40;101794.00;5069788;28;20456;-73
2022/05/28 01:32:08;;;;;;;8.32;1.42;;;;;;;10.26;79.17;101800.72;5069762;28;20094;-73
2022/05/28 01:34:34;;;;;;;5.95;1.38;;;;;;;10.22;80.07;101794.00;5070316;28;20020;-73
2022/05/28 01:37:01;;;;;;;6.88;1.60;;;;;;;10.30;80.13;101806.63;5086967;28;20016;-73
2022/05/28 01:39:28;;;;;;;5.03;1.17;;;;;;;10.23;80.72;101784.28;5068757;28;20032;-73
2022/05/28 01:41:54;;;;;;;3.63;0.75;;;;;;;10.41;81.50;101801.31;5070699;28;20089;-73
2022/05/28 01:44:21;;;;;;;10.70;1.20;;;;;;;10.42;81.36;101804.78;5068182;28;20052;-73
2022/05/28 01:46:48;;;;;;;11.65;1.77;;;;;;;10.36;82.13;101798.19;5067758;28;20451;-73
2022/05/28 01:49:16;;;;;;;9.80;1.38;;;;;;;10.33;82.15;101794.97;5068949;28;20512;-73
2022/05/28 01:51:50;;;;;;;5.97;1.92;;;;;;;10.33;82.93;101805.53;5070535;28;20020;-73
2022/05/28 01:54:20;;;;;;;16.65;2.08;;;;;;;10.27;81.83;101805.00;5062058;28;20035;-73
2022/05/28 01:56:50;;;;;;;9.73;1.50;;;;;;;10.24;80.59;101797.38;5069691;28;20024;-73
2022/05/28 01:59:20;;;;;;;10.48;1.30;;;;;;;10.19;80.44;101799.53;5067452;28;20038;-73
2022/05/28 02:01:46;;;;;;;4.82;0.90;;;;;;;10.11;80.68;101775.56;5085391;28;20761;-73
2022/05/28 02:04:12;;;;;;;4.28;1.13;;;;;;;10.16;80.58;101793.66;5069639;28;20020;-73
2022/05/28 02:06:39;;;;;;;5.88;1.10;;;;;;;10.06;79.92;101790.91;5069444;28;20036;-73
2022/05/28 02:09:07;;;;;;;11.77;1.95;;;;;;;10.09;80.17;101790.69;5083952;28;20149;-73
2022/05/28 02:11:52;;;;;;;7.95;1.30;;;;;;;10.06;80.14;101798.81;5070072;28;20052;-73
2022/05/28 02:14:31;;;;;;;7.75;1.55;;;;;;;10.02;78.66;101790.34;5068280;28;20029;-73
2022/05/28 02:17:04;;;;;;;9.70;1.63;;;;;;;10.02;79.34;101802.69;5069103;28;20692;-73
2022/05/28 02:19:49;;;;;;;11.35;1.25;;;;;;;10.04;78.34;101801.63;5068165;28;20077;-73
2022/05/28 02:22:37;;;;;;;5.57;1.25;;;;;;;10.01;79.04;101795.75;5068034;28;20024;-73
2022/05/28 02:25:12;;;;;;;10.90;1.40;;;;;;;10.00;79.80;101792.25;5063794;28;20093;-73
2022/05/28 02:27:40;;;;;;;11.77;1.70;;;;;;;10.03;80.30;101812.28;5067724;28;20020;-73
2022/05/28 02:30:06;;;;;;;12.43;1.88;;;;;;;10.05;79.90;101807.72;5068738;28;20024;-73
2022/05/28 02:32:31;;;;;;;10.48;1.88;;;;;;;10.05;78.97;101805.91;5068416;28;20476;-72
2022/05/28 02:34:56;;;;;;;7.53;1.35;;;;;;;10.05;79.27;101798.00;5068721;28;20044;-72
2022/05/28 02:37:25;;;;;;;9.98;1.55;;;;;;;9.97;79.46;101789.03;5068368;28;20504;-72
2022/05/28 02:39:50;;;;;;;6.40;1.65;;;;;;;9.92;80.48;101783.28;5067863;28;20066;-72
2022/05/28 02:42:16;;;;;;;12.70;2.00;;;;;;;10.07;79.83;101795.25;5050644;28;20485;-72
2022/05/28 02:44:41;;;;;;;5.90;1.20;;;;;;;10.00;80.46;101794.91;5067957;28;20041;-73
2022/05/28 02:47:07;;;;;;;4.30;0.95;;;;;;;10.03;80.68;101805.19;5049759;28;20371;-72
2022/05/28 02:49:33;;;;;;;12.75;1.73;;;;;;;10.02;80.22;101792.16;5068061;28;20036;-72
2022/05/28 02:52:03;;;;;;;12.88;1.58;;;;;;;9.99;80.36;101808.19;5066154;28;20028;-72
2022/05/28 02:54:30;;;;;;;11.43;1.65;;;;;;;9.95;80.78;101794.44;5068140;28;20040;-72
2022/05/28 02:56:55;;;;;;;12.88;1.42;;;;;;;9.93;80.58;101801.63;5068194;28;20600;-73
2022/05/28 02:59:21;;;;;;;7.95;1.65;;;;;;;9.90;80.81;101793.97;5069384;28;20115;-73
2022/05/28 03:01:46;;;;;;;5.30;1.10;;;;;;;9.64;79.88;101765.22;5068886;28;20549;-73
2022/05/28 03:04:12;;;;;;;4.80;1.42;;;;;;;9.80;79.49;101788.59;5069649;28;20127;-73
2022/05/28 03:06:38;;;;;;;6.93;1.35;;;;;;;9.86;80.01;101803.06;5051664;28;20020;-73
2022/05/28 03:09:05;;;;;;;6.78;1.38;;;;;;;9.88;80.59;101811.69;5068866;28;20108;-73
2022/05/28 03:11:31;;;;;;;10.10;1.70;;;;;;;9.63;80.61;101778.53;5065969;28;20024;-73
2022/05/28 03:13:56;;;;;;;8.95;1.70;;;;;;;9.83;80.95;101808.59;5050702;28;20031;-73
2022/05/28 03:16:22;;;;;;;6.80;1.80;;;;;;;9.82;81.39;101802.50;5068648;28;20384;-73
2022/05/28 03:18:47;;;;;;;6.20;1.40;;;;;;;9.72;80.65;101790.16;5069320;28;20059;-73
2022/05/28 03:21:13;;;;;;;3.47;1.38;;;;;;;9.64;80.39;101786.31;5066504;28;20618;-73
2022/05/28 03:23:38;;;;;;;12.77;1.42;;;;;;;9.62;79.47;101782.94;5068104;28;20035;-73
2022/05/28 03:26:13;;;;;;;7.82;1.45;;;;;;;9.70;78.91;101795.53;5066649;28;20036;-73
2022/05/28 03:28:38;;;;;;;5.80;1.40;;;;;;;9.66;79.04;101802.00;5082248;28;20020;-73
2022/05/28 03:31:04;;;;;;;8.38;1.48;;;;;;;9.69;80.70;101807.06;5067733;28;20153;-73
2022/05/28 03:33:29;;;;;;;8.90;1.80;;;;;;;9.68;81.34;101808.00;5083821;28;20036;-73
2022/05/28 03:35:54;;;;;;;10.75;1.30;;;;;;;9.66;81.86;101810.75;5068640;28;20033;-73
2022/05/28 03:38:20;;;;;;;7.22;1.25;;;;;;;9.72;81.46;101813.88;5067334;28;20033;-73
2022/05/28 03:40:45;;;;;;;10.20;1.50;;;;;;;9.75;81.22;101808.34;5068567;28;20500;-73
2022/05/28 03:43:10;;;;;;;5.68;1.10;;;;;;;9.81;81.93;101806.06;5064592;28;20146;-73
2022/05/28 03:45:36;;;;;;;8.70;1.48;;;;;;;9.86;80.93;101814.47;5013489;28;20616;-73
2022/05/28 03:48:04;;;;;;;9.05;1.90;;;;;;;9.84;81.45;101803.22;5030317;28;20147;-73
2022/05/28 03:50:29;;;;;;;11.05;2.13;;;;;;;9.95;81.01;101814.69;5047497;28;20443;-73
2022/05/28 03:52:55;;;;;;;5.82;1.33;;;;;;;10.00;81.50;101810.72;5047798;28;20044;-73
2022/05/28 03:55:20;;;;;;;5.45;1.40;;;;;;;10.08;82.02;101818.00;5047748;28;20495;-73
2022/05/28 03:57:47;;;;;;;11.88;1.52;;;;;;;10.15;80.74;101813.06;5048002;28;20103;-73
2022/05/28 04:00:13;;;;;;;8.45;1.80;;;;;;;10.15;81.13;101808.66;5048033;28;20025;-73
2022/05/28 04:02:38;;;;;;;5.72;1.38;;;;;;;10.20;81.39;101816.22;5029534;28;20120;-73
2022/05/28 04:05:04;;;;;;;9.93;2.17;;;;;;;10.23;81.44;101815.94;5048712;28;20163;-73
2022/05/28 04:07:30;;;;;;;5.60;1.48;;;;;;;10.28;81.43;101819.91;5014671;28;20124;-73
2022/05/28 04:09:55;;;;;;;12.15;2.35;;;;;;;10.32;82.20;101822.31;5033366;28;20033;-73
2022/05/28 04:12:20;;;;;;;12.93;2.35;;;;;;;10.36;82.18;101818.47;5032692;28;20178;-73
2022/05/28 04:14:46;;;;;;;6.80;1.40;;;;;;;10.36;81.20;101810.53;5051081;28;20112;-73
2022/05/28 04:17:12;;;;;;;11.20;2.47;;;;;;;10.43;81.14;101828.41;5052256;28;20121;-73
2022/05/28 04:19:37;;;;;;;10.48;3.08;;;;;;;10.42;81.12;101841.72;5033566;28;20029;-72
2022/05/28 04:22:03;;;;;;;9.10;1.45;;;;;;;10.36;83.14;101840.41;5049999;28;20071;-72
2022/05/28 04:24:29;;;;;;;5.70;0.93;;;;;;;10.11;84.34;101838.88;5017091;28;20084;-72
2022/05/28 04:26:54;;;;;;;5.10;1.13;;;;;;;10.00;84.34;101846.81;5051504;28;20112;-72
2022/05/28 04:29:20;;;;;;;3.88;1.13;;;;;;;9.92;86.84;101844.78;5052054;28;20412;-73
2022/05/28 04:31:45;;;;;;;8.55;1.10;;;;;;;9.85;87.36;101807.50;5050759;28;20090;-73
2022/05/28 04:34:10;;;;;;;7.45;1.30;;;;;;;10.08;86.60;101836.47;5033555;28;20155;-73
2022/05/28 04:36:36;;;;;;;8.32;1.48;;;;;;;10.24;86.87;101836.94;5016439;28;20036;-72
2022/05/28 04:39:02;;;;;;;9.95;1.48;;;;;;;10.28;85.58;101845.44;5033389;28;20047;-73
2022/05/28 04:41:27;;;;;;;9.82;1.42;;;;;;;10.35;85.42;101845.81;5050630;28;20536;-73
2022/05/28 04:43:53;;;;;;;8.45;1.55;;;;;;;10.36;85.34;101853.59;5059676;28;20131;-73
2022/05/28 04:46:19;;;;;;;13.27;2.63;;;;;;;10.35;86.11;101848.47;5070239;28;20408;-73
2022/05/28 04:48:44;;;;;;;14.65;2.40;;;;;;;10.36;85.18;101858.88;5070499;28;20123;-73
2022/05/28 04:51:09;;;;;;;12.63;1.70;;;;;;;10.26;83.43;101828.91;5070412;28;20024;-73
2022/05/28 04:53:35;;;;;;;14.25;1.88;;;;;;;10.48;83.61;101851.78;5067995;28;20032;-73
2022/05/28 04:56:00;;;;;;;13.25;2.03;;;;;;;10.63;83.83;101849.69;5068563;28;20413;-73
2022/05/28 04:58:27;;;;;;;18.20;1.90;;;;;;;10.56;84.86;101838.81;5069011;28;20064;-73
2022/05/28 05:00:54;;;;;;;6.70;2.47;;;;;;;10.65;85.19;101853.88;5067519;28;20119;-73
2022/05/28 05:03:19;;;;;;;9.23;2.53;;;;;;;10.69;85.78;101860.59;5070310;28;20025;-73
2022/05/28 05:05:45;;;;;;;23.30;2.15;;;;;;;10.75;85.66;101853.13;5068798;28;20033;-73
2022/05/28 05:08:10;;;;;;;4.95;2.03;;;;;;;10.80;85.24;101861.50;5068809;28;20174;-73
2022/05/28 05:10:36;;;;;;;12.20;1.95;;;;;;;10.79;85.96;101867.75;5069977;28;20036;-72
2022/05/28 05:13:02;;;;;;;6.72;2.28;;;;;;;10.77;85.54;101865.22;5069620;28;20021;-73
2022/05/28 05:15:27;;;;;;;8.48;2.25;;;;;;;10.82;85.50;101871.00;5067121;28;20028;-73
2022/05/28 05:17:53;;;;;;;8.75;1.88;;;;;;;10.87;84.25;101868.78;5068497;28;20392;-73
2022/05/28 05:20:18;;;;;;;12.32;2.22;;;;;;;11.04;83.75;101867.41;5069402;28;20025;-73
2022/05/28 05:22:44;;;;;;;9.32;1.75;;;;;;;11.20;83.81;101866.13;5068330;28;20078;-73
2022/05/28 05:25:11;;;;;;;9.32;2.28;;;;;;;11.33;82.93;101879.97;5067640;28;20085;-73
2022/05/28 05:27:37;;;;;;;11.68;2.55;;;;;;;11.37;82.20;101885.84;5070034;28;20399;-73
2022/05/28 05:30:03;;;;;;;8.70;1.23;;;;;;;11.30;81.03;101878.44;5067965;28;20024;-73
2022/05/28 05:32:29;;;;;;;7.45;1.42;;;;;;;11.33;79.52;101885.25;5068771;28;20481;-73
2022/05/28 05:34:54;;;;;;;12.27;2.67;;;;;;;11.27;80.36;101885.75;5067767;28;20377;-73
2022/05/28 05:37:20;;;;;;;12.73;1.77;;;;;;;11.28;79.68;101887.44;5069014;28;20119;-72
2022/05/28 05:39:45;;;;;;;6.15;1.05;;;;;;;11.35;80.32;101893.88;5068257;28;20029;-73
2022/05/28 05:42:11;;;;;;;13.20;1.95;;;;;;;11.34;80.11;101868.41;5068248;28;20411;-73
2022/05/28 05:44:37;;;;;;;11.30;1.92;;;;;;;11.49;80.00;101882.97;5047960;28;20041;-74
2022/05/28 05:47:02;;;;;;;10.57;1.55;;;;;;;11.72;79.00;101885.47;5034496;28;20549;-72
2022/05/28 05:49:28;;;;;;;8.38;1.42;;;;;;;11.90;79.07;101897.13;5050568;28;20464;-72
2022/05/28 05:51:55;;;;;;;9.00;1.50;;;;;;;11.91;77.85;101901.47;5064878;28;20563;-73
2022/05/28 05:54:24;;;;;;;8.75;1.60;;;;;;;11.95;77.79;101894.06;5068784;28;20146;-73
2022/05/28 05:56:49;;;;;;;9.75;1.65;;;;;;;11.99;76.38;101899.94;5068661;28;20039;-74
2022/05/28 05:59:15;;;;;;;9.90;1.85;;;;;;;12.00;77.40;101904.25;5083968;28;20419;-72
2022/05/28 06:01:40;;;;;;;16.52;1.73;;;;;;;12.24;77.14;101904.78;5069093;28;20028;-72
2022/05/28 06:04:05;;;;;;;11.30;1.38;;;;;;;12.66;76.32;101901.91;5067993;28;20522;-72
2022/05/28 06:06:31;;;;;;;5.93;1.40;;;;;;;12.90;75.40;101908.63;5066767;28;20570;-72
2022/05/28 06:08:56;;;;;;;9.82;1.55;;;;;;;12.92;74.57;101918.13;5067321;28;20329;-74
2022/05/28 06:11:22;;;;;;;7.45;1.30;;;;;;;12.49;74.03;101910.53;5066966;28;20025;-73
2022/05/28 06:13:47;;;;;;;7.57;1.15;;;;;;;12.59;75.04;101911.41;5068813;28;20027;-72
2022/05/28 06:16:13;;;;;;;11.30;1.75;;;;;;;12.65;74.44;101915.28;5068015;28;20028;-72
2022/05/28 06:18:38;;;;;;;6.25;1.65;;;;;;;12.65;74.28;101907.34;5066903;28;20032;-73
2022/05/28 06:21:04;;;;;;;10.48;1.50;;;;;;;12.96;74.16;101913.38;5067165;28;20048;-73
2022/05/28 06:23:30;;;;;;;15.95;1.75;;;;;;;13.53;72.74;101911.66;5067936;28;20035;-73
2022/05/28 06:25:56;;;;;;;10.57;2.35;;;;;;;13.78;72.36;101919.97;5069093;28;20480;-73
2022/05/28 06:28:22;;;;;;;10.15;1.80;;;;;;;13.42;73.73;101917.13;5068575;28;20037;-73
2022/05/28 06:30:50;;;;;;;14.10;1.77;;;;;;;13.33;73.26;101921.47;5066913;28;20086;-73
2022/05/28 06:33:17;;;;;;;9.40;1.80;;;;;;;13.62;72.08;101895.88;5068097;28;20056;-74
2022/05/28 06:35:42;;;;;;;15.25;2.35;;;;;;;14.08;71.30;101915.38;5068129;28;20044;-73
2022/05/28 06:38:08;;;;;;;10.52;2.80;;;;;;;14.17;70.95;101904.69;5068805;28;20067;-74
2022/05/28 06:40:37;;;;;;;7.40;1.80;;;;;;;14.23;70.44;101916.56;5066997;28;20033;-74
2022/05/28 06:43:04;;;;;;;8.18;1.65;;;;;;;14.57;69.38;101908.03;5062245;28;20538;-74
2022/05/28 06:45:30;;;;;;;5.57;1.20;;;;;;;14.83;68.38;101910.78;5047982;28;20033;-74
2022/05/28 06:47:55;;;;;;;10.95;1.85;;;;;;;15.26;67.76;101900.31;5029493;28;20121;-74
2022/05/28 06:53:09;;;;;;;10.57;2.20;;;;;;;15.08;66.40;101925.09;5047663;28;20122;-74
2022/05/28 06:55:36;;;;;;;2.80;1.27;;;;;;;15.29;65.93;101922.13;5030203;28;20013;-74
2022/05/28 06:58:02;;;;;;;10.88;1.90;;;;;;;15.39;65.55;101932.66;5030080;28;20029;-74
2022/05/28 07:00:28;;;;;;;11.10;1.83;;;;;;;15.92;65.55;101929.03;5013654;28;20048;-74
2022/05/28 07:02:53;;;;;;;9.55;1.45;;;;;;;16.42;64.51;101930.91;5046853;28;20061;-74
2022/05/28 07:05:19;;;;;;;8.38;1.65;;;;;;;15.86;63.97;101929.66;5047835;28;20048;-74
2022/05/28 07:07:44;;;;;;;12.10;2.40;;;;;;;15.64;64.87;101915.03;5030243;28;20540;-74
2022/05/28 07:10:11;;;;;;;8.50;2.00;;;;;;;16.22;63.44;101940.13;5011375;28;20026;-74
2022/05/28 07:12:36;;;;;;;8.43;1.77;;;;;;;16.99;62.22;101938.19;5048046;28;20041;-73
2022/05/28 07:15:02;;;;;;;9.35;1.45;;;;;;;17.50;59.37;101931.84;5047799;28;20028;-73
2022/05/28 07:17:27;;;;;;;14.15;2.22;;;;;;;17.00;59.26;101928.34;5030161;28;20037;-74
2022/05/28 07:19:53;;;;;;;11.18;2.10;;;;;;;16.76;60.95;101924.63;5045711;28;20024;-74
2022/05/28 07:22:18;;;;;;;10.50;2.45;;;;;;;16.55;61.76;101940.25;5048218;28;20041;-74
2022/05/28 07:24:44;;;;;;;8.20;2.65;;;;;;;17.02;61.47;101934.34;5047498;28;20112;-74
2022/05/28 07:27:11;;;;;;;6.80;1.80;;;;;;;17.14;60.25;101941.03;5029413;28;20037;-74
2022/05/28 07:29:38;;;;;;;6.82;1.45;;;;;;;17.57;58.87;101941.69;5047637;28;20423;-73
2022/05/28 07:32:04;;;;;;;8.80;2.47;;;;;;;17.85;58.28;101939.44;5029896;28;20025;-73
2022/05/28 07:34:29;;;;;;;13.25;2.20;;;;;;;17.76;59.00;101935.13;5029504;28;20037;-73
2022/05/28 07:36:54;;;;;;;11.75;1.73;;;;;;;17.49;59.04;101925.66;5030086;28;20064;-73
2022/05/28 07:39:20;;;;;;;12.00;1.90;;;;;;;17.24;59.62;101952.34;5013851;28;20051;-73
2022/05/28 07:41:45;;;;;;;15.35;1.92;;;;;;;16.77;60.58;101936.16;5029069;28;20025;-73
2022/05/28 07:44:11;;;;;;;14.27;1.92;;;;;;;16.19;62.61;101932.47;5052596;28;20041;-73
2022/05/28 07:46:36;;;;;;;10.65;1.83;;;;;;;16.08;64.07;101944.25;5049616;28;20094;-74
2022/05/28 07:49:03;;;;;;;9.02;2.10;;;;;;;16.24;63.80;101954.13;5033866;28;20120;-73
2022/05/28 07:51:29;;;;;;;9.60;1.50;;;;;;;16.01;62.49;101948.53;5047627;28;20033;-73
2022/05/28 07:53:55;;;;;;;9.52;1.83;;;;;;;16.10;62.89;101941.44;5030414;28;20013;-73
2022/05/28 07:56:21;;;;;;;8.27;1.90;;;;;;;16.17;62.60;101953.09;5050966;28;20812;-74
2022/05/28 07:58:46;;;;;;;9.02;1.83;;;;;;;16.73;61.80;101950.78;5016497;28;20064;-74
2022/05/28 08:01:27;;;;;;;4.15;1.33;;;;;;;17.51;59.13;101957.50;5033299;28;20033;-74
2022/05/28 08:03:54;;;;;;;8.10;1.73;;;;;;;18.44;57.51;101949.75;5047453;28;20517;-74
2022/05/28 08:06:20;;;;;;;10.43;1.63;;;;;;;19.14;56.17;101953.34;5047714;28;20021;-73
2022/05/28 08:08:47;;;;;;;6.57;1.65;;;;;;;18.69;54.43;101941.59;5029864;28;20037;-73
2022/05/28 08:11:13;;;;;;;6.03;1.42;;;;;;;19.50;54.15;101966.06;5031049;28;20033;-73
2022/05/28 08:13:39;;;;;;;11.55;1.55;;;;;;;19.49;53.23;101946.50;5028632;28;20090;-73
2022/05/28 08:16:04;;;;;;;11.63;1.85;;;;;;;19.53;53.91;101961.19;5050270;28;20499;-73
2022/05/28 08:18:30;;;;;;;15.90;2.17;;;;;;;19.26;55.08;101959.09;5048294;28;20120;-73
2022/05/28 08:23:42;;;;;;;11.23;2.45;;;;;;;18.80;54.26;101970.63;5050883;28;20123;-74
2022/05/28 08:26:08;;;;;;;6.90;1.45;;;;;;;18.45;54.65;101961.28;5050042;28;20035;-74
2022/05/28 08:28:36;;;;;;;5.25;1.48;;;;;;;19.09;53.16;101961.88;5051131;28;20029;-74
2022/05/28 08:31:01;;;;;;;4.90;1.70;;;;;;;19.32;51.68;101967.22;5009287;28;20128;-74
2022/05/28 08:33:27;;;;;;;9.25;1.65;;;;;;;19.49;52.98;101959.06;5032418;28;20060;-75
2022/05/28 08:35:53;;;;;;;10.40;1.67;;;;;;;19.94;53.16;101974.16;5031838;28;20071;-74
2022/05/28 08:38:20;;;;;;;8.82;1.75;;;;;;;20.07;51.85;101981.56;5002993;28;20487;-73
2022/05/28 08:40:54;;;;;;;8.70;1.65;;;;;;;19.12;53.47;101971.41;5050763;28;20040;-73
2022/05/28 08:43:21;;;;;;;7.25;1.45;;;;;;;19.49;52.27;101969.78;5034496;28;20025;-74
2022/05/28 08:45:49;;;;;;;5.53;1.40;;;;;;;19.33;52.23;101987.63;5067038;28;20470;-73
2022/05/28 08:48:20;;;;;;;6.60;1.17;;;;;;;20.12;50.15;101971.13;5068309;28;20028;-73
2022/05/28 08:51:09;;;;;;;5.70;1.27;;;;;;;20.95;48.95;101977.06;5067056;28;20328;-74
2022/05/28 08:53:45;;;;;;;10.00;1.70;;;;;;;22.12;47.47;101991.84;5069433;28;20074;-74
2022/05/28 08:56:18;;;;;;;9.52;1.63;;;;;;;22.48;47.12;101993.47;5070044;28;20028;-73
2022/05/28 08:58:45;;;;;;;5.90;2.13;;;;;;;21.96;47.23;101997.53;5065935;28;20020;-73
2022/05/28 09:01:16;;;;;;;9.00;1.90;;;;;;;21.78;48.30;101998.84;5070085;28;20062;-75
2022/05/28 09:03:57;;;;;;;12.85;2.05;;;;;;;21.70;50.00;101996.31;5067358;28;20032;-74
2022/05/28 09:06:29;;;;;;;8.65;2.10;;;;;;;21.77;48.80;102001.72;5069647;28;20380;-74
2022/05/28 09:08:56;;;;;;;9.35;1.60;;;;;;;22.00;48.34;102000.66;5070317;28;20024;-74
2022/05/28 09:11:33;;;;;;;6.93;1.70;;;;;;;21.62;49.06;102004.50;5071048;28;20036;-74
2022/05/28 09:14:08;;;;;;;5.45;1.20;;;;;;;22.60;46.78;101991.00;5070174;28;20031;-74
2022/05/28 09:16:38;;;;;;;5.80;1.52;;;;;;;23.28;47.00;101990.97;5062349;28;20111;-74
2022/05/28 09:19:08;;;;;;;7.25;2.03;;;;;;;23.62;45.16;101983.69;5069841;28;20020;-74
2022/05/28 09:21:34;;;;;;;10.30;1.67;;;;;;;22.27;46.60;101991.72;5069871;28;20496;-74
2022/05/28 09:24:04;;;;;;;10.18;1.92;;;;;;;21.05;47.03;101987.47;5070081;28;20016;-75
2022/05/28 09:26:45;;;;;;;7.75;1.60;;;;;;;20.37;48.90;101992.28;5069662;28;20032;-73
2022/05/28 09:29:38;;;;;;;6.38;1.67;;;;;;;20.99;49.65;101985.59;5068547;28;20554;-73
2022/05/28 09:32:06;;;;;;;7.10;1.40;;;;;;;21.09;48.93;101987.94;5067739;28;20108;-73
2022/05/28 09:34:55;;;;;;;6.97;1.25;;;;;;;21.35;48.02;101998.91;5067194;28;20056;-73
2022/05/28 09:37:27;;;;;;;11.57;1.83;;;;;;;21.85;47.51;101998.06;5069203;28;20029;-73
2022/05/28 09:40:24;;;;;;;6.95;1.45;;;;;;;21.93;45.39;102003.31;5068975;28;20157;-73
2022/05/28 09:43:02;;;;;;;7.35;1.15;;;;;;;22.29;43.32;102002.28;5068484;28;20024;-75
2022/05/28 09:45:45;;;;;;;6.80;1.30;;;;;;;23.03;43.90;102006.06;5067750;28;20076;-74
2022/05/28 09:48:25;;;;;;;6.20;1.45;;;;;;;22.67;44.67;102007.16;5045305;28;20132;-74
2022/05/28 09:50:51;;;;;;;5.05;1.20;;;;;;;21.17;44.41;102003.91;5068744;28;20028;-74
2022/05/28 09:56:58;;;;;;;5.63;1.05;;;;;;;22.54;43.40;102003.41;5068535;28;20284;-74
2022/05/28 09:59:28;;;;;;;5.25;1.20;;;;;;;22.05;44.15;101998.19;5005527;28;20281;-74
2022/05/28 10:02:04;;;;;;;7.40;1.40;;;;;;;21.36;45.66;101999.72;5005382;28;20406;-74
2022/05/28 10:04:30;;;;;;;6.10;1.30;;;;;;;22.30;43.43;102003.94;5003774;28;20383;-73
2022/05/28 10:07:02;;;;;;;7.55;1.80;;;;;;;23.32;42.72;102010.22;5005702;28;20076;-73
2022/05/28 10:09:31;;;;;;;7.13;1.63;;;;;;;24.14;42.67;102008.91;5004402;28;20064;-74
2022/05/28 10:11:58;;;;;;;5.78;1.45;;;;;;;22.89;44.42;101999.81;5001834;28;20079;-74
2022/05/28 10:14:28;;;;;;;9.50;1.58;;;;;;;21.30;45.03;101995.16;5005099;28;20533;-74
2022/05/28 10:16:55;;;;;;;5.78;1.38;;;;;;;21.45;46.41;102013.88;4988030;28;20184;-74
2022/05/28 10:19:49;;;;;;;4.55;1.02;;;;;;;22.72;43.64;102012.78;5002959;28;20124;-74
2022/05/28 10:22:17;;;;;;;9.38;1.75;;;;;;;23.32;43.59;101999.44;4998750;28;20433;-73
2022/05/28 10:24:50;;;;;;;4.82;1.27;;;;;;;23.84;41.63;101996.97;5004145;28;20044;-73
2022/05/28 10:27:28;;;;;;;2.67;0.95;;;;;;;23.60;42.43;102000.09;5003314;28;20026;-73
2022/05/28 10:29:57;;;;;;;8.48;1.33;;;;;;;23.37;43.00;101997.81;5005263;28;20068;-74
2022/05/28 10:32:36;;;;;;;6.30;1.83;;;;;;;22.39;44.06;102000.06;5003382;28;20474;-74
2022/05/28 10:35:20;;;;;;;15.27;1.77;;;;;;;22.21;45.18;101991.66;5037006;28;20119;-73
2022/05/28 10:37:46;;;;;;;6.30;1.33;;;;;;;22.01;44.52;101992.38;5064914;28;20075;-75
2022/05/28 10:40:18;;;;;;;6.80;1.23;;;;;;;21.51;45.35;102013.09;5068192;28;20640;-74
2022/05/28 10:42:46;;;;;;;6.03;1.20;;;;;;;21.55;47.19;101987.53;5046796;28;20500;-73
2022/05/28 10:45:16;;;;;;;7.38;1.48;;;;;;;22.79;44.12;101984.03;5047515;28;20500;-73
2022/05/28 10:48:07;;;;;;;10.02;2.25;;;;;;;24.28;42.19;102001.63;5046683;28;20677;-74
2022/05/28 10:50:51;;;;;;;;;;;;;;;23.69;42.21;102010.63;5045995;28;20112;-73
2022/05/28 10:53:31;;;;;;;11.10;1.90;;;;;;;22.68;43.67;102006.16;5023823;28;19920;-73
2022/05/28 10:56:15;;;;;;;5.32;1.65;;;;;;;22.29;44.67;102010.34;5046915;28;20704;-73
2022/05/28 10:59:00;;;;;;;3.97;1.10;;;;;;;21.30;45.33;102001.34;5047316;28;20028;-73
2022/05/28 11:01:46;;;;;;;7.60;1.40;;;;;;;20.87;47.04;102006.72;5045198;28;20036;-73
2022/05/28 11:04:20;;;;;;;6.85;1.52;;;;;;;20.46;49.27;102004.53;5022163;28;20033;-73
2022/05/28 11:07:05;;;;;;;13.13;1.80;;;;;;;20.28;49.11;102012.16;5027302;28;20040;-73
2022/05/28 11:10:08;;;;;;;6.60;1.33;;;;;;;20.73;48.77;102012.94;5047395;28;20025;-74
2022/05/28 11:12:48;;;;;;;4.47;1.02;;;;;;;22.16;46.16;102011.91;5047192;28;20057;-74
2022/05/28 11:15:20;;;;;;;6.97;1.65;;;;;;;23.20;43.94;102007.31;5046767;28;20009;-74
2022/05/28 11:18:42;;;;;;;7.32;1.40;;;;;;;22.95;44.39;101999.81;5050089;28;20124;-74
2022/05/28 11:21:15;;;;;;;5.72;0.90;;;;;;;23.38;41.33;102004.84;4968774;28;20479;-74
2022/05/28 11:24:15;;;;;;;5.78;1.20;;;;;;;23.47;43.08;102013.53;4968551;28;20042;-74
2022/05/28 11:26:54;;;;;;;6.15;1.25;;;;;;;22.85;43.85;102004.75;4957794;28;20202;-74
2022/05/28 11:29:22;;;;;;;8.50;1.85;;;;;;;23.78;42.66;101999.47;4970764;28;20062;-74
2022/05/28 11:31:52;;;;;;;5.28;1.17;;;;;;;24.43;42.05;101998.63;4969891;28;20199;-74
2022/05/28 11:34:23;;;;;;;10.52;1.50;;;;;;;24.80;40.38;102010.53;4970345;28;20053;-74
2022/05/28 11:37:23;;;;;;;4.45;1.52;;;;;;;24.92;41.29;102009.84;4968857;28;20035;-74
2022/05/28 11:39:55;;;;;;;7.50;1.35;;;;;;;24.27;41.58;102007.22;4956796;28;20027;-74
2022/05/28 11:42:23;;;;;;;5.07;1.00;;;;;;;23.01;42.87;102003.56;4969576;28;20118;-74
2022/05/28 11:44:56;;;;;;;7.03;1.40;;;;;;;22.22;43.99;102006.78;4999020;28;20069;-75